sensor_id;sensor_type;location;lat;lon;timestamp;pressure;altitude;pressure_sealevel;temperature;humidity
38558;BME280;24333;42.626;23.308;2023-04-23T00:33:07;70690.81;;;-148.95;99.46
38558;BME280;24333;42.626;23.308;2023-04-23T00:39:12;70688.75;;;-148.95;99.78
38558;BME280;24333;42.626;23.308;2023-04-23T02:17:20;70773.81;;;-148.95;100.00
38558;BME280;24333;42.626;23.308;2023-04-23T02:20:17;70775.91;;;-148.95;100.00
38558;BME280;24333;42.626;23.308;2023-04-23T02:22:43;70777.97;;;-148.95;100.00
38558;BME280;24333;42.626;23.308;2023-04-23T02:25:10;70788.34;;;-148.95;100.00
38558;BME280;24333;42.626;23.308;2023-04-23T02:27:49;70782.13;;;-148.95;100.00
38558;BME280;24333;42.626;23.308;2023-04-23T02:36:42;70782.13;;;-148.95;100.00
38558;BME280;24333;42.626;23.308;2023-04-23T02:39:08;70773.81;;;-148.95;100.00
38558;BME280;24333;42.626;23.308;2023-04-23T02:41:34;70775.91;;;-148.95;100.00
38558;BME280;24333;42.626;23.308;2023-04-23T02:43:59;70775.91;;;-148.95;100.00
38558;BME280;24333;42.626;23.308;2023-04-23T02:46:27;70782.13;;;-148.95;100.00
38558;BME280;24333;42.626;23.308;2023-04-23T05:44:46;70562.19;;;-148.95;100.00
38558;BME280;24333;42.626;23.308;2023-04-23T05:47:28;70574.63;;;-148.95;100.00
38558;BME280;24333;42.626;23.308;2023-04-23T05:49:53;70564.25;;;-148.95;100.00
38558;BME280;24333;42.626;23.308;2023-04-23T05:52:39;70566.31;;;-148.95;100.00
38558;BME280;24333;42.626;23.308;2023-04-23T05:58:11;70562.19;;;-148.95;100.00
38558;BME280;24333;42.626;23.308;2023-04-23T06:00:36;70568.41;;;-148.95;100.00
38558;BME280;24333;42.626;23.308;2023-04-23T06:03:04;70576.69;;;-148.95;100.00
38558;BME280;24333;42.626;23.308;2023-04-23T06:05:30;70566.31;;;-148.95;100.00
38558;BME280;24333;42.626;23.308;2023-04-23T06:07:56;70560.09;;;-148.95;100.00
38558;BME280;24333;42.626;23.308;2023-04-23T06:10:22;70566.31;;;-148.95;100.00
38558;BME280;24333;42.626;23.308;2023-04-23T06:12:48;70549.72;;;-148.95;100.00
38558;BME280;24333;42.626;23.308;2023-04-23T06:15:13;70528.97;;;-148.95;100.00
38558;BME280;24333;42.626;23.308;2023-04-23T06:17:39;70520.69;;;-148.95;100.00
38558;BME280;24333;42.626;23.308;2023-04-23T06:20:05;70504.09;;;-148.95;100.00
38558;BME280;24333;42.626;23.308;2023-04-23T06:22:40;70495.78;;;-148.95;100.00
38558;BME280;24333;42.626;23.308;2023-04-23T06:25:11;70477.09;;;-148.95;100.00
38558;BME280;24333;42.626;23.308;2023-04-23T06:27:37;70468.81;;;-148.95;100.00
38558;BME280;24333;42.626;23.308;2023-04-23T06:30:02;70464.66;;;-148.95;100.00
38558;BME280;24333;42.626;23.308;2023-04-23T06:32:53;70462.59;;;-148.95;100.00
38558;BME280;24333;42.626;23.308;2023-04-23T06:35:52;70456.38;;;-148.95;100.00
38558;BME280;24333;42.626;23.308;2023-04-23T06:38:21;70470.88;;;-148.95;100.00
38558;BME280;24333;42.626;23.308;2023-04-23T06:40:47;70448.06;;;-148.95;100.00
38558;BME280;24333;42.626;23.308;2023-04-23T06:43:13;70427.31;;;-148.95;100.00
38558;BME280;24333;42.626;23.308;2023-04-23T06:45:39;70437.69;;;-148.95;100.00
38558;BME280;24333;42.626;23.308;2023-04-23T06:48:04;70425.25;;;-148.95;100.00
38558;BME280;24333;42.626;23.308;2023-04-23T06:50:30;70419.00;;;-148.95;100.00
38558;BME280;24333;42.626;23.308;2023-04-23T06:53:37;70402.41;;;-148.95;100.00
38558;BME280;24333;42.626;23.308;2023-04-23T06:58:42;70373.38;;;-148.95;100.00
38558;BME280;24333;42.626;23.308;2023-04-23T07:01:18;70360.91;;;-148.95;99.33
38558;BME280;24333;42.626;23.308;2023-04-23T07:04:25;70346.41;;;-148.95;97.40
38558;BME280;24333;42.626;23.308;2023-04-23T07:07:45;70336.03;;;-148.95;97.70
38558;BME280;24333;42.626;23.308;2023-04-23T07:10:21;70340.19;;;-148.95;96.93
38558;BME280;24333;42.626;23.308;2023-04-23T07:13:33;70325.66;;;-148.95;95.92
38558;BME280;24333;42.626;23.308;2023-04-23T07:16:18;70325.66;;;-148.95;96.14
38558;BME280;24333;42.626;23.308;2023-04-23T07:18:49;70321.50;;;-148.95;95.78
38558;BME280;24333;42.626;23.308;2023-04-23T12:41:41;69049.94;;;-148.95;28.34
38558;BME280;24333;42.626;23.308;2023-04-23T12:44:09;69027.13;;;-148.95;28.11
38558;BME280;24333;42.626;23.308;2023-04-23T12:54:10;69238.69;;;-148.95;33.82
38558;BME280;24333;42.626;23.308;2023-04-23T12:56:39;69244.91;;;-148.95;33.30
38558;BME280;24333;42.626;23.308;2023-04-23T12:59:06;69300.91;;;-148.95;33.26
38558;BME280;24333;42.626;23.308;2023-04-23T13:01:49;69323.72;;;-148.95;33.50
38558;BME280;24333;42.626;23.308;2023-04-23T13:04:21;69344.44;;;-148.95;34.20
38558;BME280;24333;42.626;23.308;2023-04-23T13:06:46;69371.41;;;-148.95;32.60
38558;BME280;24333;42.626;23.308;2023-04-23T13:09:12;69373.50;;;-148.95;33.41
38558;BME280;24333;42.626;23.308;2023-04-23T13:11:41;69365.19;;;-148.95;32.84
38558;BME280;24333;42.626;23.308;2023-04-23T13:14:16;69325.78;;;-148.95;33.12
38558;BME280;24333;42.626;23.308;2023-04-23T13:16:42;69292.59;;;-148.95;32.51
38558;BME280;24333;42.626;23.308;2023-04-23T13:19:08;69271.84;;;-148.95;31.34
38558;BME280;24333;42.626;23.308;2023-04-23T13:21:34;69230.38;;;-148.95;32.41
38558;BME280;24333;42.626;23.308;2023-04-23T13:24:00;69220.00;;;-148.95;32.09
38558;BME280;24333;42.626;23.308;2023-04-23T13:26:27;69226.22;;;-148.95;31.02
38558;BME280;24333;42.626;23.308;2023-04-23T13:29:00;69253.19;;;-148.95;32.14
38558;BME280;24333;42.626;23.308;2023-04-23T13:31:27;69290.53;;;-148.95;31.18
38558;BME280;24333;42.626;23.308;2023-04-23T13:33:53;69296.75;;;-148.95;31.39
38558;BME280;24333;42.626;23.308;2023-04-23T13:36:19;69257.34;;;-148.95;32.49
38558;BME280;24333;42.626;23.308;2023-04-23T13:38:45;69230.38;;;-148.95;32.73
38558;BME280;24333;42.626;23.308;2023-04-23T13:41:12;69203.41;;;-148.95;33.18
38558;BME280;24333;42.626;23.308;2023-04-23T13:43:40;69178.53;;;-148.95;33.07
38558;BME280;24333;42.626;23.308;2023-04-23T13:46:06;69118.38;;;-148.95;32.25
38558;BME280;24333;42.626;23.308;2023-04-23T13:48:37;69112.16;;;-148.95;32.20
38558;BME280;24333;42.626;23.308;2023-04-23T13:51:04;69134.97;;;-148.95;32.66
38558;BME280;24333;42.626;23.308;2023-04-23T13:53:35;69155.72;;;-148.95;32.35
38558;BME280;24333;42.626;23.308;2023-04-23T13:56:03;69178.53;;;-148.95;32.07
38558;BME280;24333;42.626;23.308;2023-04-23T13:58:29;69188.91;;;-148.95;33.10
38558;BME280;24333;42.626;23.308;2023-04-23T14:00:55;69203.41;;;-148.95;32.14
38558;BME280;24333;42.626;23.308;2023-04-23T14:03:23;69205.50;;;-148.95;32.24
38558;BME280;24333;42.626;23.308;2023-04-23T14:05:49;69197.19;;;-148.95;31.88
38558;BME280;24333;42.626;23.308;2023-04-23T14:08:15;69184.75;;;-148.95;31.86
38558;BME280;24333;42.626;23.308;2023-04-23T14:10:41;69161.94;;;-148.95;33.48
38558;BME280;24333;42.626;23.308;2023-04-23T14:13:15;69110.09;;;-148.95;31.46
38558;BME280;24333;42.626;23.308;2023-04-23T14:15:46;69054.09;;;-148.95;30.67
38558;BME280;24333;42.626;23.308;2023-04-23T17:55:21;69964.66;;;-148.95;49.27
38558;BME280;24333;42.626;23.308;2023-04-23T17:57:47;69964.66;;;-148.95;49.90
38558;BME280;24333;42.626;23.308;2023-04-23T18:00:13;69964.66;;;-148.95;48.68
38558;BME280;24333;42.626;23.308;2023-04-23T18:02:39;69966.75;;;-148.95;48.77
38558;BME280;24333;42.626;23.308;2023-04-23T18:05:09;69962.59;;;-148.95;49.27
38558;BME280;24333;42.626;23.308;2023-04-23T18:07:50;69968.81;;;-148.95;50.31
38558;BME280;24333;42.626;23.308;2023-04-23T18:10:16;69962.59;;;-148.95;49.37
38558;BME280;24333;42.626;23.308;2023-04-23T18:12:41;69975.03;;;-148.95;50.04
38558;BME280;24333;42.626;23.308;2023-04-23T18:15:07;69970.91;;;-148.95;50.21
38558;BME280;24333;42.626;23.308;2023-04-23T18:18:00;69983.34;;;-148.95;52.19
38558;BME280;24333;42.626;23.308;2023-04-23T18:24:11;70012.38;;;-148.95;55.11
38558;BME280;24333;42.626;23.308;2023-04-23T18:27:00;70037.28;;;-148.95;54.23
38558;BME280;24333;42.626;23.308;2023-04-23T18:29:26;70045.56;;;-148.95;52.23
38558;BME280;24333;42.626;23.308;2023-04-23T18:31:54;70053.88;;;-148.95;52.19
38558;BME280;24333;42.626;23.308;2023-04-23T18:34:21;70055.94;;;-148.95;51.14
